sensor_id;sensor_type;location;lat;lon;timestamp;temperature;humidity
14188;DHT22;7175;51.978;5.330;2023-02-28T00:00:41;1.20;99.90
14188;DHT22;7175;51.978;5.330;2023-02-28T00:03:10;1.10;99.90
14188;DHT22;7175;51.978;5.330;2023-02-28T00:05:40;1.10;99.90
14188;DHT22;7175;51.978;5.330;2023-02-28T00:08:09;1.10;99.90
14188;DHT22;7175;51.978;5.330;2023-02-28T00:10:38;1.20;99.90
14188;DHT22;7175;51.978;5.330;2023-02-28T00:13:06;1.20;99.90
14188;DHT22;7175;51.978;5.330;2023-02-28T00:15:35;1.20;99.90
14188;DHT22;7175;51.978;5.330;2023-02-28T00:18:03;1.20;99.90
14188;DHT22;7175;51.978;5.330;2023-02-28T00:20:31;1.20;99.90
14188;DHT22;7175;51.978;5.330;2023-02-28T00:23:00;1.20;99.90
14188;DHT22;7175;51.978;5.330;2023-02-28T00:25:29;1.30;99.90
14188;DHT22;7175;51.978;5.330;2023-02-28T00:27:57;1.30;99.90
14188;DHT22;7175;51.978;5.330;2023-02-28T00:30:25;1.30;99.90
14188;DHT22;7175;51.978;5.330;2023-02-28T00:32:53;1.40;99.90
14188;DHT22;7175;51.978;5.330;2023-02-28T00:35:22;1.40;99.90
14188;DHT22;7175;51.978;5.330;2023-02-28T00:37:50;1.50;99.90
14188;DHT22;7175;51.978;5.330;2023-02-28T00:40:20;1.50;99.90
14188;DHT22;7175;51.978;5.330;2023-02-28T00:42:48;1.50;99.90
14188;DHT22;7175;51.978;5.330;2023-02-28T00:45:16;1.50;99.90
14188;DHT22;7175;51.978;5.330;2023-02-28T00:47:44;1.60;99.90
14188;DHT22;7175;51.978;5.330;2023-02-28T00:50:13;1.60;99.90
14188;DHT22;7175;51.978;5.330;2023-02-28T00:52:41;1.60;99.90
14188;DHT22;7175;51.978;5.330;2023-02-28T00:55:09;1.70;99.90
14188;DHT22;7175;51.978;5.330;2023-02-28T00:57:39;1.70;99.90
14188;DHT22;7175;51.978;5.330;2023-02-28T01:00:08;1.70;99.90
14188;DHT22;7175;51.978;5.330;2023-02-28T01:02:36;1.80;99.90
14188;DHT22;7175;51.978;5.330;2023-02-28T01:05:05;1.80;99.90
14188;DHT22;7175;51.978;5.330;2023-02-28T01:07:33;1.90;99.90
14188;DHT22;7175;51.978;5.330;2023-02-28T01:10:01;1.90;99.90
14188;DHT22;7175;51.978;5.330;2023-02-28T01:12:29;1.90;99.90
14188;DHT22;7175;51.978;5.330;2023-02-28T01:14:59;1.90;99.90
14188;DHT22;7175;51.978;5.330;2023-02-28T01:17:27;2.00;99.90
14188;DHT22;7175;51.978;5.330;2023-02-28T01:19:55;2.00;99.90
14188;DHT22;7175;51.978;5.330;2023-02-28T01:22:23;2.00;99.90
14188;DHT22;7175;51.978;5.330;2023-02-28T01:24:51;2.00;99.90
14188;DHT22;7175;51.978;5.330;2023-02-28T01:27:19;2.00;99.90
14188;DHT22;7175;51.978;5.330;2023-02-28T01:29:47;2.00;99.90
14188;DHT22;7175;51.978;5.330;2023-02-28T01:32:17;2.10;99.90
14188;DHT22;7175;51.978;5.330;2023-02-28T01:34:45;2.10;99.90
14188;DHT22;7175;51.978;5.330;2023-02-28T01:37:14;2.10;99.90
14188;DHT22;7175;51.978;5.330;2023-02-28T01:39:42;2.20;99.90
14188;DHT22;7175;51.978;5.330;2023-02-28T01:42:11;2.20;99.90
14188;DHT22;7175;51.978;5.330;2023-02-28T01:45:04;2.20;99.90
14188;DHT22;7175;51.978;5.330;2023-02-28T01:47:36;2.20;99.90
14188;DHT22;7175;51.978;5.330;2023-02-28T01:50:09;2.20;99.90
14188;DHT22;7175;51.978;5.330;2023-02-28T01:52:40;2.20;99.90
14188;DHT22;7175;51.978;5.330;2023-02-28T01:55:11;2.20;99.90
14188;DHT22;7175;51.978;5.330;2023-02-28T01:57:43;2.30;99.90
14188;DHT22;7175;51.978;5.330;2023-02-28T02:00:15;2.30;99.90
14188;DHT22;7175;51.978;5.330;2023-02-28T02:02:47;2.30;99.90
14188;DHT22;7175;51.978;5.330;2023-02-28T02:05:19;2.30;99.90
14188;DHT22;7175;51.978;5.330;2023-02-28T02:07:50;2.30;99.90
14188;DHT22;7175;51.978;5.330;2023-02-28T02:10:21;2.30;99.90
14188;DHT22;7175;51.978;5.330;2023-02-28T02:13:13;2.30;99.90
14188;DHT22;7175;51.978;5.330;2023-02-28T02:15:53;2.40;99.90
14188;DHT22;7175;51.978;5.330;2023-02-28T02:18:29;2.40;99.90
14188;DHT22;7175;51.978;5.330;2023-02-28T02:27:53;2.40;99.90
14188;DHT22;7175;51.978;5.330;2023-02-28T02:30:50;2.40;99.90
14188;DHT22;7175;51.978;5.330;2023-02-28T02:36:48;2.50;99.90
14188;DHT22;7175;51.978;5.330;2023-02-28T02:39:24;2.40;99.90
14188;DHT22;7175;51.978;5.330;2023-02-28T02:41:59;2.50;99.90
14188;DHT22;7175;51.978;5.330;2023-02-28T02:44:33;2.50;99.90
14188;DHT22;7175;51.978;5.330;2023-02-28T02:47:08;2.50;99.90
14188;DHT22;7175;51.978;5.330;2023-02-28T02:49:41;2.50;99.90
14188;DHT22;7175;51.978;5.330;2023-02-28T02:52:13;2.50;99.90
14188;DHT22;7175;51.978;5.330;2023-02-28T02:54:45;2.50;99.90
14188;DHT22;7175;51.978;5.330;2023-02-28T02:57:17;2.50;99.90
14188;DHT22;7175;51.978;5.330;2023-02-28T02:59:50;2.50;99.90
14188;DHT22;7175;51.978;5.330;2023-02-28T03:02:21;2.50;99.90
14188;DHT22;7175;51.978;5.330;2023-02-28T03:04:52;2.60;99.90
14188;DHT22;7175;51.978;5.330;2023-02-28T03:07:22;2.50;99.90
14188;DHT22;7175;51.978;5.330;2023-02-28T03:09:51;2.60;99.90
14188;DHT22;7175;51.978;5.330;2023-02-28T03:12:20;2.60;99.90
14188;DHT22;7175;51.978;5.330;2023-02-28T03:14:56;2.60;99.90
14188;DHT22;7175;51.978;5.330;2023-02-28T03:17:42;2.60;99.90
14188;DHT22;7175;51.978;5.330;2023-02-28T03:20:17;2.60;99.90
14188;DHT22;7175;51.978;5.330;2023-02-28T03:22:52;2.60;99.90
14188;DHT22;7175;51.978;5.330;2023-02-28T03:25:33;2.60;99.90
14188;DHT22;7175;51.978;5.330;2023-02-28T03:28:08;2.60;99.90
14188;DHT22;7175;51.978;5.330;2023-02-28T03:30:45;2.60;99.90
14188;DHT22;7175;51.978;5.330;2023-02-28T03:33:17;2.50;99.90
14188;DHT22;7175;51.978;5.330;2023-02-28T03:35:49;2.50;99.90
14188;DHT22;7175;51.978;5.330;2023-02-28T03:38:25;2.50;99.90
14188;DHT22;7175;51.978;5.330;2023-02-28T03:40:59;2.50;99.90
14188;DHT22;7175;51.978;5.330;2023-02-28T03:43:31;2.50;99.90
14188;DHT22;7175;51.978;5.330;2023-02-28T03:46:03;2.50;99.90
14188;DHT22;7175;51.978;5.330;2023-02-28T03:48:39;2.50;99.90
14188;DHT22;7175;51.978;5.330;2023-02-28T03:51:10;2.50;99.90
14188;DHT22;7175;51.978;5.330;2023-02-28T03:53:44;2.50;99.90
14188;DHT22;7175;51.978;5.330;2023-02-28T03:56:16;2.50;99.90
14188;DHT22;7175;51.978;5.330;2023-02-28T03:58:48;2.50;99.90
14188;DHT22;7175;51.978;5.330;2023-02-28T04:01:22;2.60;99.90
14188;DHT22;7175;51.978;5.330;2023-02-28T04:03:51;2.60;99.90
14188;DHT22;7175;51.978;5.330;2023-02-28T04:06:21;2.60;99.90
14188;DHT22;7175;51.978;5.330;2023-02-28T04:08:51;2.60;99.90
14188;DHT22;7175;51.978;5.330;2023-02-28T04:11:23;2.60;99.90
14188;DHT22;7175;51.978;5.330;2023-02-28T04:13:51;2.60;99.90
14188;DHT22;7175;51.978;5.330;2023-02-28T04:16:20;2.60;99.90
14188;DHT22;7175;51.978;5.330;2023-02-28T04:19:02;2.60;99.90
14188;DHT22;7175;51.978;5.330;2023-02-28T04:21:33;2.60;99.90
14188;DHT22;7175;51.978;5.330;2023-02-28T04:24:03;2.70;99.90
14188;DHT22;7175;51.978;5.330;2023-02-28T04:26:32;2.60;99.90
14188;DHT22;7175;51.978;5.330;2023-02-28T04:29:02;2.60;99.90
14188;DHT22;7175;51.978;5.330;2023-02-28T04:31:31;2.60;99.90
14188;DHT22;7175;51.978;5.330;2023-02-28T04:33:59;2.60;99.90
14188;DHT22;7175;51.978;5.330;2023-02-28T04:36:28;2.60;99.90
14188;DHT22;7175;51.978;5.330;2023-02-28T04:38:56;2.60;99.90
14188;DHT22;7175;51.978;5.330;2023-02-28T04:41:26;2.60;99.90
14188;DHT22;7175;51.978;5.330;2023-02-28T04:43:58;2.60;99.90
14188;DHT22;7175;51.978;5.330;2023-02-28T04:46:26;2.60;99.90
14188;DHT22;7175;51.978;5.330;2023-02-28T04:48:54;2.60;99.90
14188;DHT22;7175;51.978;5.330;2023-02-28T04:51:22;2.50;99.90
14188;DHT22;7175;51.978;5.330;2023-02-28T04:53:50;2.50;99.90
14188;DHT22;7175;51.978;5.330;2023-02-28T04:56:18;2.50;99.90
14188;DHT22;7175;51.978;5.330;2023-02-28T04:58:48;2.40;99.90
14188;DHT22;7175;51.978;5.330;2023-02-28T05:01:21;2.40;99.90
14188;DHT22;7175;51.978;5.330;2023-02-28T05:03:50;2.40;99.90
14188;DHT22;7175;51.978;5.330;2023-02-28T05:06:19;2.40;99.90
14188;DHT22;7175;51.978;5.330;2023-02-28T05:08:48;2.40;99.90
14188;DHT22;7175;51.978;5.330;2023-02-28T05:11:19;2.30;99.90
14188;DHT22;7175;51.978;5.330;2023-02-28T05:13:49;2.30;99.90
14188;DHT22;7175;51.978;5.330;2023-02-28T05:16:18;2.30;99.90
14188;DHT22;7175;51.978;5.330;2023-02-28T05:18:46;2.30;99.90
14188;DHT22;7175;51.978;5.330;2023-02-28T05:21:25;2.30;99.90
14188;DHT22;7175;51.978;5.330;2023-02-28T05:23:54;2.30;99.90
14188;DHT22;7175;51.978;5.330;2023-02-28T05:26:22;2.30;99.90
14188;DHT22;7175;51.978;5.330;2023-02-28T05:28:52;2.30;99.90
14188;DHT22;7175;51.978;5.330;2023-02-28T05:31:21;2.20;99.90
14188;DHT22;7175;51.978;5.330;2023-02-28T05:33:49;2.20;99.90
14188;DHT22;7175;51.978;5.330;2023-02-28T05:36:18;2.30;99.90
14188;DHT22;7175;51.978;5.330;2023-02-28T05:38:46;2.20;99.90
14188;DHT22;7175;51.978;5.330;2023-02-28T05:41:16;2.30;99.90
14188;DHT22;7175;51.978;5.330;2023-02-28T05:43:46;2.30;99.90
14188;DHT22;7175;51.978;5.330;2023-02-28T05:46:16;2.30;99.90
14188;DHT22;7175;51.978;5.330;2023-02-28T05:48:47;2.30;99.90
14188;DHT22;7175;51.978;5.330;2023-02-28T05:51:15;2.30;99.90
14188;DHT22;7175;51.978;5.330;2023-02-28T05:53:44;2.40;99.90
14188;DHT22;7175;51.978;5.330;2023-02-28T05:56:12;2.30;99.90
14188;DHT22;7175;51.978;5.330;2023-02-28T05:58:40;2.30;99.90
14188;DHT22;7175;51.978;5.330;2023-02-28T06:01:34;2.40;99.90
14188;DHT22;7175;51.978;5.330;2023-02-28T06:04:04;2.30;99.90
14188;DHT22;7175;51.978;5.330;2023-02-28T06:06:33;2.30;99.90
14188;DHT22;7175;51.978;5.330;2023-02-28T06:09:03;2.30;99.90
14188;DHT22;7175;51.978;5.330;2023-02-28T06:11:32;2.30;99.90
14188;DHT22;7175;51.978;5.330;2023-02-28T06:14:01;2.30;99.90
14188;DHT22;7175;51.978;5.330;2023-02-28T06:16:30;2.30;99.90
14188;DHT22;7175;51.978;5.330;2023-02-28T06:19:03;2.30;99.90
14188;DHT22;7175;51.978;5.330;2023-02-28T06:21:31;2.30;99.90
14188;DHT22;7175;51.978;5.330;2023-02-28T06:23:59;2.30;99.90
14188;DHT22;7175;51.978;5.330;2023-02-28T06:26:28;2.30;99.90
14188;DHT22;7175;51.978;5.330;2023-02-28T06:28:56;2.30;99.90
14188;DHT22;7175;51.978;5.330;2023-02-28T06:31:24;2.30;99.90
14188;DHT22;7175;51.978;5.330;2023-02-28T06:33:54;2.30;99.90
14188;DHT22;7175;51.978;5.330;2023-02-28T06:36:25;2.30;99.90
14188;DHT22;7175;51.978;5.330;2023-02-28T06:38:53;2.30;99.90
14188;DHT22;7175;51.978;5.330;2023-02-28T06:41:23;2.30;99.90
14188;DHT22;7175;51.978;5.330;2023-02-28T06:43:53;2.30;99.90
14188;DHT22;7175;51.978;5.330;2023-02-28T06:46:21;2.30;99.90
14188;DHT22;7175;51.978;5.330;2023-02-28T06:48:50;2.30;99.90
14188;DHT22;7175;51.978;5.330;2023-02-28T06:51:19;2.30;99.90
14188;DHT22;7175;51.978;5.330;2023-02-28T06:53:50;2.30;99.90
14188;DHT22;7175;51.978;5.330;2023-02-28T06:56:19;2.30;99.90
14188;DHT22;7175;51.978;5.330;2023-02-28T06:58:48;2.30;99.90
14188;DHT22;7175;51.978;5.330;2023-02-28T07:01:17;2.30;99.90
14188;DHT22;7175;51.978;5.330;2023-02-28T07:03:46;2.30;99.90
14188;DHT22;7175;51.978;5.330;2023-02-28T07:06:19;2.30;99.90
14188;DHT22;7175;51.978;5.330;2023-02-28T07:08:47;2.40;99.90
14188;DHT22;7175;51.978;5.330;2023-02-28T07:11:17;2.40;99.90
14188;DHT22;7175;51.978;5.330;2023-02-28T07:13:45;2.40;99.90
14188;DHT22;7175;51.978;5.330;2023-02-28T07:16:15;2.40;99.90
14188;DHT22;7175;51.978;5.330;2023-02-28T07:18:44;2.40;99.90
14188;DHT22;7175;51.978;5.330;2023-02-28T07:21:13;2.40;99.90
14188;DHT22;7175;51.978;5.330;2023-02-28T07:23:42;2.40;99.90
14188;DHT22;7175;51.978;5.330;2023-02-28T07:26:12;2.40;99.90
14188;DHT22;7175;51.978;5.330;2023-02-28T07:28:43;2.40;99.90
14188;DHT22;7175;51.978;5.330;2023-02-28T07:31:12;2.40;99.90
14188;DHT22;7175;51.978;5.330;2023-02-28T07:33:42;2.40;99.90
14188;DHT22;7175;51.978;5.330;2023-02-28T07:36:11;2.40;99.90
14188;DHT22;7175;51.978;5.330;2023-02-28T07:38:42;2.50;99.90
14188;DHT22;7175;51.978;5.330;2023-02-28T07:41:14;2.60;99.90
14188;DHT22;7175;51.978;5.330;2023-02-28T07:43:44;2.60;99.90
14188;DHT22;7175;51.978;5.330;2023-02-28T07:46:14;2.60;99.90
14188;DHT22;7175;51.978;5.330;2023-02-28T07:48:43;2.60;99.90
14188;DHT22;7175;51.978;5.330;2023-02-28T07:51:12;2.70;99.90
14188;DHT22;7175;51.978;5.330;2023-02-28T07:53:40;2.80;99.90
14188;DHT22;7175;51.978;5.330;2023-02-28T07:56:08;2.80;99.90
14188;DHT22;7175;51.978;5.330;2023-02-28T07:58:37;2.80;99.90
14188;DHT22;7175;51.978;5.330;2023-02-28T08:01:08;2.70;99.90
14188;DHT22;7175;51.978;5.330;2023-02-28T08:03:37;2.80;99.90
14188;DHT22;7175;51.978;5.330;2023-02-28T08:06:16;2.80;99.90
14188;DHT22;7175;51.978;5.330;2023-02-28T08:08:44;2.80;99.90
14188;DHT22;7175;51.978;5.330;2023-02-28T08:11:13;2.90;99.90
14188;DHT22;7175;51.978;5.330;2023-02-28T08:13:41;3.00;99.90
14188;DHT22;7175;51.978;5.330;2023-02-28T08:16:12;3.10;99.90
14188;DHT22;7175;51.978;5.330;2023-02-28T08:18:44;3.20;99.90
14188;DHT22;7175;51.978;5.330;2023-02-28T08:21:12;3.30;99.90
14188;DHT22;7175;51.978;5.330;2023-02-28T08:23:40;3.40;99.90
14188;DHT22;7175;51.978;5.330;2023-02-28T08:26:08;3.50;99.90
14188;DHT22;7175;51.978;5.330;2023-02-28T08:28:36;3.50;99.90
14188;DHT22;7175;51.978;5.330;2023-02-28T08:31:09;3.50;99.90
14188;DHT22;7175;51.978;5.330;2023-02-28T08:33:39;3.60;99.90
14188;DHT22;7175;51.978;5.330;2023-02-28T08:36:08;3.60;99.90
14188;DHT22;7175;51.978;5.330;2023-02-28T08:38:37;3.60;99.90
14188;DHT22;7175;51.978;5.330;2023-02-28T08:41:06;3.60;99.90
14188;DHT22;7175;51.978;5.330;2023-02-28T08:43:36;3.60;99.90
14188;DHT22;7175;51.978;5.330;2023-02-28T08:46:05;3.70;99.90
14188;DHT22;7175;51.978;5.330;2023-02-28T08:48:34;3.70;99.90
14188;DHT22;7175;51.978;5.330;2023-02-28T08:51:08;3.70;99.90
14188;DHT22;7175;51.978;5.330;2023-02-28T08:53:37;3.70;99.90
14188;DHT22;7175;51.978;5.330;2023-02-28T08:56:08;3.80;99.90
14188;DHT22;7175;51.978;5.330;2023-02-28T08:58:36;4.00;99.90
14188;DHT22;7175;51.978;5.330;2023-02-28T09:01:09;4.10;99.90
14188;DHT22;7175;51.978;5.330;2023-02-28T09:03:38;4.30;99.90
14188;DHT22;7175;51.978;5.330;2023-02-28T09:06:10;4.60;99.90
14188;DHT22;7175;51.978;5.330;2023-02-28T09:08:40;4.90;99.90
14188;DHT22;7175;51.978;5.330;2023-02-28T09:11:08;5.00;99.90
14188;DHT22;7175;51.978;5.330;2023-02-28T09:13:38;4.70;99.90
14188;DHT22;7175;51.978;5.330;2023-02-28T09:16:08;4.60;99.90
14188;DHT22;7175;51.978;5.330;2023-02-28T09:18:37;4.60;99.90
14188;DHT22;7175;51.978;5.330;2023-02-28T09:21:09;4.60;99.90
14188;DHT22;7175;51.978;5.330;2023-02-28T09:23:40;4.50;99.90
14188;DHT22;7175;51.978;5.330;2023-02-28T09:26:14;4.40;99.90
14188;DHT22;7175;51.978;5.330;2023-02-28T09:28:42;4.40;99.90
14188;DHT22;7175;51.978;5.330;2023-02-28T09:31:14;4.60;99.90
14188;DHT22;7175;51.978;5.330;2023-02-28T09:33:43;4.70;99.90
14188;DHT22;7175;51.978;5.330;2023-02-28T09:36:12;4.70;99.90
14188;DHT22;7175;51.978;5.330;2023-02-28T09:38:40;4.80;99.90
14188;DHT22;7175;51.978;5.330;2023-02-28T09:41:14;4.80;99.90
14188;DHT22;7175;51.978;5.330;2023-02-28T09:43:45;4.70;99.90
14188;DHT22;7175;51.978;5.330;2023-02-28T09:46:29;4.70;99.90
14188;DHT22;7175;51.978;5.330;2023-02-28T09:49:00;4.90;99.90
14188;DHT22;7175;51.978;5.330;2023-02-28T09:51:49;5.10;99.90
14188;DHT22;7175;51.978;5.330;2023-02-28T09:54:20;5.40;99.90
14188;DHT22;7175;51.978;5.330;2023-02-28T09:56:50;5.30;99.90
14188;DHT22;7175;51.978;5.330;2023-02-28T09:59:31;5.10;99.90
14188;DHT22;7175;51.978;5.330;2023-02-28T10:02:17;5.30;99.90
14188;DHT22;7175;51.978;5.330;2023-02-28T10:04:50;5.90;99.90
14188;DHT22;7175;51.978;5.330;2023-02-28T10:07:41;5.90;99.90
14188;DHT22;7175;51.978;5.330;2023-02-28T10:10:19;5.90;99.90
14188;DHT22;7175;51.978;5.330;2023-02-28T10:12:52;5.80;99.90
14188;DHT22;7175;51.978;5.330;2023-02-28T10:15:23;5.80;99.90
14188;DHT22;7175;51.978;5.330;2023-02-28T10:17:56;5.80;99.90
14188;DHT22;7175;51.978;5.330;2023-02-28T10:20:38;5.90;99.90
14188;DHT22;7175;51.978;5.330;2023-02-28T10:23:14;5.90;99.90
14188;DHT22;7175;51.978;5.330;2023-02-28T10:25:47;6.00;99.90
14188;DHT22;7175;51.978;5.330;2023-02-28T10:28:17;6.00;99.90
14188;DHT22;7175;51.978;5.330;2023-02-28T10:30:47;6.10;99.90
14188;DHT22;7175;51.978;5.330;2023-02-28T10:33:23;5.90;99.90
14188;DHT22;7175;51.978;5.330;2023-02-28T10:35:52;6.30;99.90
14188;DHT22;7175;51.978;5.330;2023-02-28T10:38:23;6.40;99.90
14188;DHT22;7175;51.978;5.330;2023-02-28T10:41:04;6.60;99.90
14188;DHT22;7175;51.978;5.330;2023-02-28T10:43:32;6.20;99.90
14188;DHT22;7175;51.978;5.330;2023-02-28T10:46:04;6.20;99.90
14188;DHT22;7175;51.978;5.330;2023-02-28T10:48:36;6.40;99.90
14188;DHT22;7175;51.978;5.330;2023-02-28T10:51:06;6.80;99.90
14188;DHT22;7175;51.978;5.330;2023-02-28T10:53:39;6.60;99.90
14188;DHT22;7175;51.978;5.330;2023-02-28T10:56:28;6.50;99.90
14188;DHT22;7175;51.978;5.330;2023-02-28T10:58:59;6.60;99.90
14188;DHT22;7175;51.978;5.330;2023-02-28T11:01:39;6.80;99.90
14188;DHT22;7175;51.978;5.330;2023-02-28T11:04:18;6.80;99.90
14188;DHT22;7175;51.978;5.330;2023-02-28T11:06:51;6.90;99.90
14188;DHT22;7175;51.978;5.330;2023-02-28T11:09:28;6.90;99.90
14188;DHT22;7175;51.978;5.330;2023-02-28T11:11:57;6.80;99.90
14188;DHT22;7175;51.978;5.330;2023-02-28T11:14:28;6.80;99.90
14188;DHT22;7175;51.978;5.330;2023-02-28T11:17:02;6.80;99.90
14188;DHT22;7175;51.978;5.330;2023-02-28T11:19:35;6.80;99.90
14188;DHT22;7175;51.978;5.330;2023-02-28T11:22:06;6.70;99.90
14188;DHT22;7175;51.978;5.330;2023-02-28T11:24:40;6.70;99.90
14188;DHT22;7175;51.978;5.330;2023-02-28T11:27:25;6.70;99.90
14188;DHT22;7175;51.978;5.330;2023-02-28T11:29:54;6.90;99.90
14188;DHT22;7175;51.978;5.330;2023-02-28T11:32:23;6.90;99.90
14188;DHT22;7175;51.978;5.330;2023-02-28T11:35:02;6.70;99.90
14188;DHT22;7175;51.978;5.330;2023-02-28T11:37:31;6.80;99.90
14188;DHT22;7175;51.978;5.330;2023-02-28T11:40:02;7.10;99.90
14188;DHT22;7175;51.978;5.330;2023-02-28T11:42:46;7.10;99.90
14188;DHT22;7175;51.978;5.330;2023-02-28T11:45:25;7.20;99.90
14188;DHT22;7175;51.978;5.330;2023-02-28T11:48:01;7.20;99.90
14188;DHT22;7175;51.978;5.330;2023-02-28T11:50:45;7.50;99.90
14188;DHT22;7175;51.978;5.330;2023-02-28T11:53:23;7.40;99.90
14188;DHT22;7175;51.978;5.330;2023-02-28T11:56:01;7.60;99.90
14188;DHT22;7175;51.978;5.330;2023-02-28T11:58:42;7.60;99.90
14188;DHT22;7175;51.978;5.330;2023-02-28T12:01:23;7.30;99.90
14188;DHT22;7175;51.978;5.330;2023-02-28T12:04:03;7.30;99.90
14188;DHT22;7175;51.978;5.330;2023-02-28T12:06:43;7.60;99.90
14188;DHT22;7175;51.978;5.330;2023-02-28T12:09:32;7.90;99.90
14188;DHT22;7175;51.978;5.330;2023-02-28T12:12:10;7.20;99.90
14188;DHT22;7175;51.978;5.330;2023-02-28T12:18:07;7.50;99.90
14188;DHT22;7175;51.978;5.330;2023-02-28T12:20:41;8.10;99.90
14188;DHT22;7175;51.978;5.330;2023-02-28T12:23:26;8.00;99.90
14188;DHT22;7175;51.978;5.330;2023-02-28T12:26:04;8.30;99.90
14188;DHT22;7175;51.978;5.330;2023-02-28T12:28:40;8.30;99.90
14188;DHT22;7175;51.978;5.330;2023-02-28T12:31:14;7.90;99.90
14188;DHT22;7175;51.978;5.330;2023-02-28T12:33:48;7.60;99.90
14188;DHT22;7175;51.978;5.330;2023-02-28T12:36:19;7.80;99.90
14188;DHT22;7175;51.978;5.330;2023-02-28T12:38:54;7.80;99.90
14188;DHT22;7175;51.978;5.330;2023-02-28T12:41:28;8.10;99.90
14188;DHT22;7175;51.978;5.330;2023-02-28T12:44:02;7.60;97.90
14188;DHT22;7175;51.978;5.330;2023-02-28T12:46:35;7.70;97.80
14188;DHT22;7175;51.978;5.330;2023-02-28T12:49:08;8.00;98.40
14188;DHT22;7175;51.978;5.330;2023-02-28T12:51:38;8.10;98.30
14188;DHT22;7175;51.978;5.330;2023-02-28T12:54:14;7.30;94.80
14188;DHT22;7175;51.978;5.330;2023-02-28T12:56:48;8.00;97.00
14188;DHT22;7175;51.978;5.330;2023-02-28T12:59:24;8.10;95.00
14188;DHT22;7175;51.978;5.330;2023-02-28T13:02:09;7.90;94.70
14188;DHT22;7175;51.978;5.330;2023-02-28T13:05:05;8.30;94.50
14188;DHT22;7175;51.978;5.330;2023-02-28T13:08:12;8.20;93.60
14188;DHT22;7175;51.978;5.330;2023-02-28T13:10:48;8.20;92.70
14188;DHT22;7175;51.978;5.330;2023-02-28T13:13:22;7.80;91.30
14188;DHT22;7175;51.978;5.330;2023-02-28T13:16:03;8.30;93.50
14188;DHT22;7175;51.978;5.330;2023-02-28T13:18:35;8.30;91.20
14188;DHT22;7175;51.978;5.330;2023-02-28T13:21:08;8.30;90.80
14188;DHT22;7175;51.978;5.330;2023-02-28T13:24:00;8.00;89.10
14188;DHT22;7175;51.978;5.330;2023-02-28T13:29:37;7.90;88.50
14188;DHT22;7175;51.978;5.330;2023-02-28T13:38:21;8.40;87.20
14188;DHT22;7175;51.978;5.330;2023-02-28T13:40:50;7.90;87.80
14188;DHT22;7175;51.978;5.330;2023-02-28T13:43:18;8.30;87.40
14188;DHT22;7175;51.978;5.330;2023-02-28T13:46:12;7.80;84.80
14188;DHT22;7175;51.978;5.330;2023-02-28T13:48:42;8.20;84.00
14188;DHT22;7175;51.978;5.330;2023-02-28T13:51:41;7.90;82.70
14188;DHT22;7175;51.978;5.330;2023-02-28T13:54:37;7.90;82.10
14188;DHT22;7175;51.978;5.330;2023-02-28T13:57:20;8.30;84.90
14188;DHT22;7175;51.978;5.330;2023-02-28T14:00:00;8.10;80.80
14188;DHT22;7175;51.978;5.330;2023-02-28T14:02:46;8.00;81.00
14188;DHT22;7175;51.978;5.330;2023-02-28T14:05:19;8.10;81.10
14188;DHT22;7175;51.978;5.330;2023-02-28T14:07:54;7.90;80.60
14188;DHT22;7175;51.978;5.330;2023-02-28T14:10:26;8.40;82.10
14188;DHT22;7175;51.978;5.330;2023-02-28T14:13:11;8.50;79.30
14188;DHT22;7175;51.978;5.330;2023-02-28T14:15:50;8.30;77.20
14188;DHT22;7175;51.978;5.330;2023-02-28T14:18:25;8.10;82.70
14188;DHT22;7175;51.978;5.330;2023-02-28T14:21:02;8.20;81.40
14188;DHT22;7175;51.978;5.330;2023-02-28T14:26:44;7.90;78.80
14188;DHT22;7175;51.978;5.330;2023-02-28T14:29:39;7.70;77.80
14188;DHT22;7175;51.978;5.330;2023-02-28T14:32:15;7.60;78.20
14188;DHT22;7175;51.978;5.330;2023-02-28T14:34:53;7.50;78.60
14188;DHT22;7175;51.978;5.330;2023-02-28T14:37:28;7.50;79.80
14188;DHT22;7175;51.978;5.330;2023-02-28T14:39:58;7.50;78.60
14188;DHT22;7175;51.978;5.330;2023-02-28T14:42:32;7.40;77.70
14188;DHT22;7175;51.978;5.330;2023-02-28T14:45:00;7.40;78.30
14188;DHT22;7175;51.978;5.330;2023-02-28T14:47:31;7.50;78.80
14188;DHT22;7175;51.978;5.330;2023-02-28T14:50:01;7.60;81.10
14188;DHT22;7175;51.978;5.330;2023-02-28T14:52:32;7.50;79.50
14188;DHT22;7175;51.978;5.330;2023-02-28T14:55:04;7.40;78.70
14188;DHT22;7175;51.978;5.330;2023-02-28T14:57:38;7.50;79.10
14188;DHT22;7175;51.978;5.330;2023-02-28T15:00:13;7.50;82.00
14188;DHT22;7175;51.978;5.330;2023-02-28T15:02:42;7.40;81.20
14188;DHT22;7175;51.978;5.330;2023-02-28T15:05:22;7.30;81.20
14188;DHT22;7175;51.978;5.330;2023-02-28T15:08:03;7.10;75.40
14188;DHT22;7175;51.978;5.330;2023-02-28T15:10:32;7.20;79.70
14188;DHT22;7175;51.978;5.330;2023-02-28T15:13:04;7.30;79.10
14188;DHT22;7175;51.978;5.330;2023-02-28T15:15:41;7.30;77.70
14188;DHT22;7175;51.978;5.330;2023-02-28T15:18:31;7.30;78.50
14188;DHT22;7175;51.978;5.330;2023-02-28T15:21:03;7.20;77.50
14188;DHT22;7175;51.978;5.330;2023-02-28T15:23:35;7.10;76.00
14188;DHT22;7175;51.978;5.330;2023-02-28T15:26:05;7.10;77.00
14188;DHT22;7175;51.978;5.330;2023-02-28T15:28:35;7.10;76.80
14188;DHT22;7175;51.978;5.330;2023-02-28T15:31:28;7.10;77.10
14188;DHT22;7175;51.978;5.330;2023-02-28T15:34:19;7.10;78.60
14188;DHT22;7175;51.978;5.330;2023-02-28T15:36:50;7.10;78.60
14188;DHT22;7175;51.978;5.330;2023-02-28T15:39:19;7.00;79.90
14188;DHT22;7175;51.978;5.330;2023-02-28T15:41:48;7.00;81.10
14188;DHT22;7175;51.978;5.330;2023-02-28T15:44:27;7.00;80.50
14188;DHT22;7175;51.978;5.330;2023-02-28T15:47:01;7.00;78.70
14188;DHT22;7175;51.978;5.330;2023-02-28T15:49:38;7.00;77.80
14188;DHT22;7175;51.978;5.330;2023-02-28T15:52:15;7.00;78.00
14188;DHT22;7175;51.978;5.330;2023-02-28T15:54:44;6.90;77.60
14188;DHT22;7175;51.978;5.330;2023-02-28T15:57:15;6.90;78.10
14188;DHT22;7175;51.978;5.330;2023-02-28T15:59:50;6.90;79.00
14188;DHT22;7175;51.978;5.330;2023-02-28T16:02:21;6.90;79.80
14188;DHT22;7175;51.978;5.330;2023-02-28T16:05:02;6.90;80.60
14188;DHT22;7175;51.978;5.330;2023-02-28T16:07:30;6.90;80.30
14188;DHT22;7175;51.978;5.330;2023-02-28T16:09:58;6.80;80.90
14188;DHT22;7175;51.978;5.330;2023-02-28T16:12:29;6.80;80.40
14188;DHT22;7175;51.978;5.330;2023-02-28T16:14:59;6.80;81.40
14188;DHT22;7175;51.978;5.330;2023-02-28T16:17:33;6.70;85.10
14188;DHT22;7175;51.978;5.330;2023-02-28T16:20:11;6.70;84.40
14188;DHT22;7175;51.978;5.330;2023-02-28T16:22:39;6.60;82.40
14188;DHT22;7175;51.978;5.330;2023-02-28T16:25:11;6.60;83.40
14188;DHT22;7175;51.978;5.330;2023-02-28T16:27:40;6.50;83.00
14188;DHT22;7175;51.978;5.330;2023-02-28T16:30:17;6.50;83.60
14188;DHT22;7175;51.978;5.330;2023-02-28T16:32:47;6.50;82.50
14188;DHT22;7175;51.978;5.330;2023-02-28T16:35:17;6.50;82.80
14188;DHT22;7175;51.978;5.330;2023-02-28T16:37:45;6.50;84.90
14188;DHT22;7175;51.978;5.330;2023-02-28T16:40:15;6.40;84.60
14188;DHT22;7175;51.978;5.330;2023-02-28T16:42:45;6.30;85.40
14188;DHT22;7175;51.978;5.330;2023-02-28T16:45:28;6.30;83.90
14188;DHT22;7175;51.978;5.330;2023-02-28T16:47:56;6.20;84.70
14188;DHT22;7175;51.978;5.330;2023-02-28T16:50:27;6.10;85.40
14188;DHT22;7175;51.978;5.330;2023-02-28T16:52:55;6.10;88.70
14188;DHT22;7175;51.978;5.330;2023-02-28T16:55:25;6.10;84.70
14188;DHT22;7175;51.978;5.330;2023-02-28T16:57:55;6.00;84.40
14188;DHT22;7175;51.978;5.330;2023-02-28T17:00:24;5.90;85.00
14188;DHT22;7175;51.978;5.330;2023-02-28T17:02:53;5.90;83.10